sensor_id;sensor_type;location;lat;lon;timestamp;P1;durP1;ratioP1;P2;durP2;ratioP2
33162;SDS011;29282;45.656;11.302;2023-03-02T00:01:26;6.50;;;3.05;;
33162;SDS011;29282;45.656;11.302;2023-03-02T00:03:55;4.35;;;2.92;;
33162;SDS011;29282;45.656;11.302;2023-03-02T00:06:24;4.22;;;2.50;;
33162;SDS011;29282;45.656;11.302;2023-03-02T00:08:51;2.78;;;2.58;;
33162;SDS011;29282;45.656;11.302;2023-03-02T00:11:16;3.88;;;2.70;;
33162;SDS011;29282;45.656;11.302;2023-03-02T00:13:43;3.50;;;2.35;;
33162;SDS011;29282;45.656;11.302;2023-03-02T00:16:08;6.25;;;2.80;;
33162;SDS011;29282;45.656;11.302;2023-03-02T00:18:34;3.50;;;2.58;;
33162;SDS011;29282;45.656;11.302;2023-03-02T00:21:00;3.58;;;2.45;;
33162;SDS011;29282;45.656;11.302;2023-03-02T00:23:25;3.22;;;2.88;;
33162;SDS011;29282;45.656;11.302;2023-03-02T00:25:51;4.25;;;2.38;;
33162;SDS011;29282;45.656;11.302;2023-03-02T00:28:16;3.00;;;2.50;;
33162;SDS011;29282;45.656;11.302;2023-03-02T00:30:42;2.95;;;2.60;;
33162;SDS011;29282;45.656;11.302;2023-03-02T00:33:08;3.83;;;2.45;;
33162;SDS011;29282;45.656;11.302;2023-03-02T00:35:38;3.08;;;2.55;;
33162;SDS011;29282;45.656;11.302;2023-03-02T00:38:05;3.53;;;2.33;;
33162;SDS011;29282;45.656;11.302;2023-03-02T00:40:31;3.30;;;2.67;;
33162;SDS011;29282;45.656;11.302;2023-03-02T00:42:57;2.50;;;2.30;;
33162;SDS011;29282;45.656;11.302;2023-03-02T00:45:23;2.42;;;2.15;;
33162;SDS011;29282;45.656;11.302;2023-03-02T00:47:48;5.03;;;2.55;;
33162;SDS011;29282;45.656;11.302;2023-03-02T00:50:14;3.42;;;2.80;;
33162;SDS011;29282;45.656;11.302;2023-03-02T00:52:39;2.70;;;2.47;;
33162;SDS011;29282;45.656;11.302;2023-03-02T00:55:05;3.15;;;2.28;;
33162;SDS011;29282;45.656;11.302;2023-03-02T00:57:31;2.38;;;2.03;;
33162;SDS011;29282;45.656;11.302;2023-03-02T00:59:56;4.65;;;2.80;;
33162;SDS011;29282;45.656;11.302;2023-03-02T01:02:22;3.35;;;2.60;;
33162;SDS011;29282;45.656;11.302;2023-03-02T01:04:47;2.70;;;2.50;;
33162;SDS011;29282;45.656;11.302;2023-03-02T01:07:14;3.13;;;2.60;;
33162;SDS011;29282;45.656;11.302;2023-03-02T01:09:43;3.13;;;2.53;;
33162;SDS011;29282;45.656;11.302;2023-03-02T01:12:09;3.58;;;2.20;;
33162;SDS011;29282;45.656;11.302;2023-03-02T01:14:36;3.72;;;2.38;;
33162;SDS011;29282;45.656;11.302;2023-03-02T01:17:02;2.75;;;2.20;;
33162;SDS011;29282;45.656;11.302;2023-03-02T01:19:29;3.45;;;2.65;;
33162;SDS011;29282;45.656;11.302;2023-03-02T01:21:54;2.50;;;2.30;;
33162;SDS011;29282;45.656;11.302;2023-03-02T01:24:20;3.08;;;2.30;;
33162;SDS011;29282;45.656;11.302;2023-03-02T01:26:46;3.30;;;2.40;;
33162;SDS011;29282;45.656;11.302;2023-03-02T01:29:11;3.50;;;2.58;;
33162;SDS011;29282;45.656;11.302;2023-03-02T01:31:37;2.75;;;2.20;;
33162;SDS011;29282;45.656;11.302;2023-03-02T01:34:03;3.13;;;2.30;;
33162;SDS011;29282;45.656;11.302;2023-03-02T01:36:28;3.10;;;2.38;;
33162;SDS011;29282;45.656;11.302;2023-03-02T01:38:54;3.10;;;2.30;;
33162;SDS011;29282;45.656;11.302;2023-03-02T01:41:19;2.88;;;2.47;;
33162;SDS011;29282;45.656;11.302;2023-03-02T01:43:45;3.10;;;2.58;;
33162;SDS011;29282;45.656;11.302;2023-03-02T01:51:10;3.10;;;2.30;;
33162;SDS011;29282;45.656;11.302;2023-03-02T01:53:43;2.47;;;2.28;;
33162;SDS011;29282;45.656;11.302;2023-03-02T01:56:13;2.58;;;2.00;;
33162;SDS011;29282;45.656;11.302;2023-03-02T01:58:54;2.70;;;2.35;;
33162;SDS011;29282;45.656;11.302;2023-03-02T02:01:28;3.53;;;2.25;;
33162;SDS011;29282;45.656;11.302;2023-03-02T02:03:56;2.40;;;2.20;;
33162;SDS011;29282;45.656;11.302;2023-03-02T02:09:25;3.13;;;2.08;;
33162;SDS011;29282;45.656;11.302;2023-03-02T02:11:53;2.10;;;1.80;;
33162;SDS011;29282;45.656;11.302;2023-03-02T02:14:19;3.70;;;2.10;;
33162;SDS011;29282;45.656;11.302;2023-03-02T02:16:44;2.83;;;2.10;;
33162;SDS011;29282;45.656;11.302;2023-03-02T02:22:28;4.28;;;2.10;;
33162;SDS011;29282;45.656;11.302;2023-03-02T02:25:17;4.53;;;2.13;;
33162;SDS011;29282;45.656;11.302;2023-03-02T02:28:04;2.28;;;2.08;;
33162;SDS011;29282;45.656;11.302;2023-03-02T02:30:35;2.60;;;2.15;;
33162;SDS011;29282;45.656;11.302;2023-03-02T02:33:03;2.42;;;2.20;;
33162;SDS011;29282;45.656;11.302;2023-03-02T02:35:29;3.45;;;2.28;;
33162;SDS011;29282;45.656;11.302;2023-03-02T02:38:03;2.42;;;2.22;;
33162;SDS011;29282;45.656;11.302;2023-03-02T02:43:14;2.75;;;2.00;;
33162;SDS011;29282;45.656;11.302;2023-03-02T02:45:43;2.08;;;1.80;;
33162;SDS011;29282;45.656;11.302;2023-03-02T02:48:20;2.50;;;2.30;;
33162;SDS011;29282;45.656;11.302;2023-03-02T02:50:48;1.90;;;1.70;;
33162;SDS011;29282;45.656;11.302;2023-03-02T02:53:23;2.33;;;2.08;;
33162;SDS011;29282;45.656;11.302;2023-03-02T02:55:53;2.55;;;1.90;;
33162;SDS011;29282;45.656;11.302;2023-03-02T02:58:36;2.63;;;1.88;;
33162;SDS011;29282;45.656;11.302;2023-03-02T03:01:07;2.65;;;2.00;;
33162;SDS011;29282;45.656;11.302;2023-03-02T03:03:55;2.42;;;1.85;;
33162;SDS011;29282;45.656;11.302;2023-03-02T03:06:23;2.58;;;2.00;;
33162;SDS011;29282;45.656;11.302;2023-03-02T03:08:53;2.80;;;2.15;;
33162;SDS011;29282;45.656;11.302;2023-03-02T03:11:25;2.25;;;1.75;;
33162;SDS011;29282;45.656;11.302;2023-03-02T03:14:09;2.33;;;2.00;;
33162;SDS011;29282;45.656;11.302;2023-03-02T03:16:41;1.77;;;1.67;;
33162;SDS011;29282;45.656;11.302;2023-03-02T03:19:24;2.05;;;1.85;;
33162;SDS011;29282;45.656;11.302;2023-03-02T03:21:52;1.93;;;1.60;;
33162;SDS011;29282;45.656;11.302;2023-03-02T03:24:20;2.95;;;1.83;;
33162;SDS011;29282;45.656;11.302;2023-03-02T03:26:46;3.13;;;2.03;;
33162;SDS011;29282;45.656;11.302;2023-03-02T03:29:12;2.10;;;1.65;;
33162;SDS011;29282;45.656;11.302;2023-03-02T03:31:39;2.25;;;2.05;;
33162;SDS011;29282;45.656;11.302;2023-03-02T03:34:06;2.95;;;2.00;;
33162;SDS011;29282;45.656;11.302;2023-03-02T03:36:32;2.50;;;1.77;;
33162;SDS011;29282;45.656;11.302;2023-03-02T03:38:58;2.58;;;1.90;;
33162;SDS011;29282;45.656;11.302;2023-03-02T03:41:24;2.42;;;1.90;;
33162;SDS011;29282;45.656;11.302;2023-03-02T03:43:50;1.70;;;1.60;;
33162;SDS011;29282;45.656;11.302;2023-03-02T03:46:16;1.95;;;1.75;;
33162;SDS011;29282;45.656;11.302;2023-03-02T03:48:42;1.95;;;1.70;;
33162;SDS011;29282;45.656;11.302;2023-03-02T03:51:07;2.10;;;1.90;;
33162;SDS011;29282;45.656;11.302;2023-03-02T03:53:34;2.10;;;1.70;;
33162;SDS011;29282;45.656;11.302;2023-03-02T03:55:59;3.08;;;1.80;;
33162;SDS011;29282;45.656;11.302;2023-03-02T03:58:27;2.25;;;1.90;;
33162;SDS011;29282;45.656;11.302;2023-03-02T04:00:54;2.17;;;1.83;;
33162;SDS011;29282;45.656;11.302;2023-03-02T04:03:20;2.55;;;1.80;;
33162;SDS011;29282;45.656;11.302;2023-03-02T04:05:47;2.10;;;1.90;;
33162;SDS011;29282;45.656;11.302;2023-03-02T04:08:13;1.92;;;1.75;;
33162;SDS011;29282;45.656;11.302;2023-03-02T04:10:39;2.15;;;1.70;;
33162;SDS011;29282;45.656;11.302;2023-03-02T04:13:05;2.33;;;1.80;;
33162;SDS011;29282;45.656;11.302;2023-03-02T04:15:31;1.70;;;1.60;;
33162;SDS011;29282;45.656;11.302;2023-03-02T04:17:56;2.10;;;1.90;;
33162;SDS011;29282;45.656;11.302;2023-03-02T04:20:22;2.60;;;2.10;;
33162;SDS011;29282;45.656;11.302;2023-03-02T04:22:49;2.03;;;1.70;;
33162;SDS011;29282;45.656;11.302;2023-03-02T04:25:18;2.40;;;1.88;;
33162;SDS011;29282;45.656;11.302;2023-03-02T04:27:46;1.83;;;1.70;;
33162;SDS011;29282;45.656;11.302;2023-03-02T04:30:13;2.08;;;1.80;;
33162;SDS011;29282;45.656;11.302;2023-03-02T04:32:39;2.58;;;1.90;;
33162;SDS011;29282;45.656;11.302;2023-03-02T04:35:05;1.98;;;1.77;;
33162;SDS011;29282;45.656;11.302;2023-03-02T04:37:31;2.30;;;1.60;;
33162;SDS011;29282;45.656;11.302;2023-03-02T04:39:56;2.13;;;1.73;;
33162;SDS011;29282;45.656;11.302;2023-03-02T04:42:22;2.00;;;1.80;;
33162;SDS011;29282;45.656;11.302;2023-03-02T04:44:47;1.80;;;1.58;;
33162;SDS011;29282;45.656;11.302;2023-03-02T04:47:13;1.83;;;1.50;;
33162;SDS011;29282;45.656;11.302;2023-03-02T04:49:39;1.58;;;1.48;;
33162;SDS011;29282;45.656;11.302;2023-03-02T04:52:05;2.15;;;1.63;;
33162;SDS011;29282;45.656;11.302;2023-03-02T04:54:30;1.95;;;1.80;;
33162;SDS011;29282;45.656;11.302;2023-03-02T04:56:56;1.77;;;1.67;;
33162;SDS011;29282;45.656;11.302;2023-03-02T04:59:23;1.73;;;1.63;;
33162;SDS011;29282;45.656;11.302;2023-03-02T05:01:51;3.38;;;1.98;;
33162;SDS011;29282;45.656;11.302;2023-03-02T05:04:20;2.35;;;1.50;;
33162;SDS011;29282;45.656;11.302;2023-03-02T05:06:46;1.95;;;1.63;;
33162;SDS011;29282;45.656;11.302;2023-03-02T05:09:12;2.00;;;1.55;;
33162;SDS011;29282;45.656;11.302;2023-03-02T05:11:38;1.75;;;1.65;;
33162;SDS011;29282;45.656;11.302;2023-03-02T05:14:05;3.47;;;1.70;;
33162;SDS011;29282;45.656;11.302;2023-03-02T05:16:33;3.67;;;1.60;;
33162;SDS011;29282;45.656;11.302;2023-03-02T05:19:01;3.55;;;1.80;;
33162;SDS011;29282;45.656;11.302;2023-03-02T05:21:28;1.67;;;1.50;;
33162;SDS011;29282;45.656;11.302;2023-03-02T05:23:54;1.90;;;1.63;;
33162;SDS011;29282;45.656;11.302;2023-03-02T05:26:20;6.10;;;1.60;;
33162;SDS011;29282;45.656;11.302;2023-03-02T05:28:46;4.05;;;1.90;;
33162;SDS011;29282;45.656;11.302;2023-03-02T05:31:22;1.73;;;1.63;;
33162;SDS011;29282;45.656;11.302;2023-03-02T05:33:52;1.95;;;1.52;;
33162;SDS011;29282;45.656;11.302;2023-03-02T05:36:17;2.13;;;1.50;;
33162;SDS011;29282;45.656;11.302;2023-03-02T05:38:43;2.95;;;1.60;;
33162;SDS011;29282;45.656;11.302;2023-03-02T05:41:08;1.65;;;1.55;;
33162;SDS011;29282;45.656;11.302;2023-03-02T05:43:34;2.42;;;1.60;;
33162;SDS011;29282;45.656;11.302;2023-03-02T05:46:00;1.70;;;1.60;;
33162;SDS011;29282;45.656;11.302;2023-03-02T05:48:27;2.53;;;1.40;;
33162;SDS011;29282;45.656;11.302;2023-03-02T05:50:54;2.63;;;1.55;;
33162;SDS011;29282;45.656;11.302;2023-03-02T05:53:19;2.08;;;1.65;;
33162;SDS011;29282;45.656;11.302;2023-03-02T05:55:44;2.58;;;1.58;;
33162;SDS011;29282;45.656;11.302;2023-03-02T05:58:14;1.80;;;1.70;;
33162;SDS011;29282;45.656;11.302;2023-03-02T06:00:41;1.95;;;1.58;;
33162;SDS011;29282;45.656;11.302;2023-03-02T06:03:07;1.60;;;1.50;;
33162;SDS011;29282;45.656;11.302;2023-03-02T06:05:33;1.85;;;1.52;;
33162;SDS011;29282;45.656;11.302;2023-03-02T06:07:59;1.50;;;1.30;;
33162;SDS011;29282;45.656;11.302;2023-03-02T06:10:25;2.92;;;1.48;;
33162;SDS011;29282;45.656;11.302;2023-03-02T06:12:50;1.98;;;1.30;;
33162;SDS011;29282;45.656;11.302;2023-03-02T06:15:16;1.48;;;1.38;;
33162;SDS011;29282;45.656;11.302;2023-03-02T06:17:42;1.60;;;1.48;;
33162;SDS011;29282;45.656;11.302;2023-03-02T06:20:08;1.80;;;1.60;;
33162;SDS011;29282;45.656;11.302;2023-03-02T06:22:44;2.85;;;1.70;;
33162;SDS011;29282;45.656;11.302;2023-03-02T06:25:15;1.90;;;1.65;;
33162;SDS011;29282;45.656;11.302;2023-03-02T06:27:43;3.25;;;1.50;;
33162;SDS011;29282;45.656;11.302;2023-03-02T06:30:12;1.90;;;1.42;;
33162;SDS011;29282;45.656;11.302;2023-03-02T06:32:39;1.85;;;1.65;;
33162;SDS011;29282;45.656;11.302;2023-03-02T06:35:05;2.67;;;1.63;;
33162;SDS011;29282;45.656;11.302;2023-03-02T06:37:31;2.47;;;1.63;;
33162;SDS011;29282;45.656;11.302;2023-03-02T06:39:57;2.28;;;1.52;;
33162;SDS011;29282;45.656;11.302;2023-03-02T06:42:24;2.83;;;1.65;;
33162;SDS011;29282;45.656;11.302;2023-03-02T06:44:50;2.28;;;1.70;;
33162;SDS011;29282;45.656;11.302;2023-03-02T06:47:19;1.67;;;1.58;;
33162;SDS011;29282;45.656;11.302;2023-03-02T06:49:45;3.08;;;1.77;;
33162;SDS011;29282;45.656;11.302;2023-03-02T06:52:11;1.60;;;1.50;;
33162;SDS011;29282;45.656;11.302;2023-03-02T06:54:37;1.45;;;1.35;;
33162;SDS011;29282;45.656;11.302;2023-03-02T06:57:03;1.98;;;1.45;;
33162;SDS011;29282;45.656;11.302;2023-03-02T06:59:28;2.30;;;1.60;;
33162;SDS011;29282;45.656;11.302;2023-03-02T07:01:54;3.80;;;1.50;;
33162;SDS011;29282;45.656;11.302;2023-03-02T07:04:19;3.17;;;1.80;;
33162;SDS011;29282;45.656;11.302;2023-03-02T07:06:45;5.55;;;1.88;;
33162;SDS011;29282;45.656;11.302;2023-03-02T07:09:11;5.47;;;1.55;;
33162;SDS011;29282;45.656;11.302;2023-03-02T07:11:37;3.60;;;1.63;;
33162;SDS011;29282;45.656;11.302;2023-03-02T07:14:02;6.22;;;1.90;;
33162;SDS011;29282;45.656;11.302;2023-03-02T07:16:28;4.72;;;2.13;;
33162;SDS011;29282;45.656;11.302;2023-03-02T07:18:55;3.25;;;1.80;;
33162;SDS011;29282;45.656;11.302;2023-03-02T07:21:21;3.80;;;1.70;;
33162;SDS011;29282;45.656;11.302;2023-03-02T07:23:49;4.95;;;1.88;;
33162;SDS011;29282;45.656;11.302;2023-03-02T07:26:15;2.90;;;1.85;;
33162;SDS011;29282;45.656;11.302;2023-03-02T07:28:41;3.05;;;1.92;;
33162;SDS011;29282;45.656;11.302;2023-03-02T07:31:08;7.18;;;1.70;;
33162;SDS011;29282;45.656;11.302;2023-03-02T07:33:35;5.30;;;2.47;;
33162;SDS011;29282;45.656;11.302;2023-03-02T07:36:01;2.92;;;1.70;;
33162;SDS011;29282;45.656;11.302;2023-03-02T07:38:27;2.20;;;1.80;;
33162;SDS011;29282;45.656;11.302;2023-03-02T07:40:52;2.47;;;1.60;;
33162;SDS011;29282;45.656;11.302;2023-03-02T07:43:18;3.25;;;1.65;;
33162;SDS011;29282;45.656;11.302;2023-03-02T07:45:44;6.28;;;1.98;;
33162;SDS011;29282;45.656;11.302;2023-03-02T07:48:10;8.18;;;1.88;;
33162;SDS011;29282;45.656;11.302;2023-03-02T07:50:35;8.15;;;2.00;;
33162;SDS011;29282;45.656;11.302;2023-03-02T07:53:00;7.38;;;2.20;;
33162;SDS011;29282;45.656;11.302;2023-03-02T07:55:26;6.90;;;2.45;;
33162;SDS011;29282;45.656;11.302;2023-03-02T07:57:52;8.82;;;2.00;;
33162;SDS011;29282;45.656;11.302;2023-03-02T08:00:17;9.63;;;2.20;;
33162;SDS011;29282;45.656;11.302;2023-03-02T08:02:44;5.53;;;2.20;;
33162;SDS011;29282;45.656;11.302;2023-03-02T08:05:10;7.50;;;2.10;;
33162;SDS011;29282;45.656;11.302;2023-03-02T08:07:36;10.20;;;2.47;;
33162;SDS011;29282;45.656;11.302;2023-03-02T08:10:02;13.55;;;2.55;;
33162;SDS011;29282;45.656;11.302;2023-03-02T08:12:28;8.45;;;2.15;;
33162;SDS011;29282;45.656;11.302;2023-03-02T08:14:54;9.18;;;2.47;;
33162;SDS011;29282;45.656;11.302;2023-03-02T08:17:19;6.88;;;2.22;;
33162;SDS011;29282;45.656;11.302;2023-03-02T08:19:45;7.35;;;2.22;;
33162;SDS011;29282;45.656;11.302;2023-03-02T08:22:11;4.30;;;1.92;;
33162;SDS011;29282;45.656;11.302;2023-03-02T08:24:37;9.75;;;2.17;;
33162;SDS011;29282;45.656;11.302;2023-03-02T08:27:04;12.88;;;2.40;;
33162;SDS011;29282;45.656;11.302;2023-03-02T08:29:30;8.13;;;2.47;;
33162;SDS011;29282;45.656;11.302;2023-03-02T08:31:56;8.50;;;1.92;;
33162;SDS011;29282;45.656;11.302;2023-03-02T08:34:22;7.70;;;2.05;;
33162;SDS011;29282;45.656;11.302;2023-03-02T08:36:49;6.38;;;2.72;;
33162;SDS011;29282;45.656;11.302;2023-03-02T08:39:15;10.48;;;2.17;;
33162;SDS011;29282;45.656;11.302;2023-03-02T08:41:40;8.25;;;2.55;;
33162;SDS011;29282;45.656;11.302;2023-03-02T08:44:06;6.80;;;2.38;;
33162;SDS011;29282;45.656;11.302;2023-03-02T08:46:31;9.52;;;2.33;;
33162;SDS011;29282;45.656;11.302;2023-03-02T08:48:57;7.75;;;2.55;;
33162;SDS011;29282;45.656;11.302;2023-03-02T08:51:23;7.10;;;2.80;;
33162;SDS011;29282;45.656;11.302;2023-03-02T08:53:50;9.98;;;2.83;;
33162;SDS011;29282;45.656;11.302;2023-03-02T08:56:20;11.10;;;3.03;;
33162;SDS011;29282;45.656;11.302;2023-03-02T08:58:49;6.32;;;2.42;;
33162;SDS011;29282;45.656;11.302;2023-03-02T09:01:16;6.97;;;2.40;;
33162;SDS011;29282;45.656;11.302;2023-03-02T09:03:46;13.48;;;2.63;;
33162;SDS011;29282;45.656;11.302;2023-03-02T09:06:12;5.25;;;2.35;;
33162;SDS011;29282;45.656;11.302;2023-03-02T09:08:38;6.35;;;2.15;;
33162;SDS011;29282;45.656;11.302;2023-03-02T09:11:04;10.20;;;2.47;;
33162;SDS011;29282;45.656;11.302;2023-03-02T09:13:31;10.38;;;2.35;;
33162;SDS011;29282;45.656;11.302;2023-03-02T09:15:56;10.77;;;3.05;;
33162;SDS011;29282;45.656;11.302;2023-03-02T09:18:22;7.40;;;2.05;;
33162;SDS011;29282;45.656;11.302;2023-03-02T09:20:51;8.35;;;2.25;;
33162;SDS011;29282;45.656;11.302;2023-03-02T09:23:20;9.80;;;2.50;;
33162;SDS011;29282;45.656;11.302;2023-03-02T09:25:47;6.95;;;2.33;;
33162;SDS011;29282;45.656;11.302;2023-03-02T09:28:13;8.32;;;2.33;;
33162;SDS011;29282;45.656;11.302;2023-03-02T09:30:39;7.82;;;2.22;;
33162;SDS011;29282;45.656;11.302;2023-03-02T09:33:05;3.92;;;2.50;;
33162;SDS011;29282;45.656;11.302;2023-03-02T09:35:31;6.70;;;2.13;;
33162;SDS011;29282;45.656;11.302;2023-03-02T09:37:57;6.07;;;2.50;;
33162;SDS011;29282;45.656;11.302;2023-03-02T09:40:23;6.05;;;2.42;;
33162;SDS011;29282;45.656;11.302;2023-03-02T09:46:39;4.45;;;2.15;;
33162;SDS011;29282;45.656;11.302;2023-03-02T09:54:50;5.90;;;2.30;;
33162;SDS011;29282;45.656;11.302;2023-03-02T09:57:20;4.15;;;2.33;;
33162;SDS011;29282;45.656;11.302;2023-03-02T09:59:49;5.63;;;2.42;;
33162;SDS011;29282;45.656;11.302;2023-03-02T10:02:24;6.45;;;2.22;;
33162;SDS011;29282;45.656;11.302;2023-03-02T10:04:51;5.57;;;2.50;;
33162;SDS011;29282;45.656;11.302;2023-03-02T10:07:21;3.90;;;2.28;;
33162;SDS011;29282;45.656;11.302;2023-03-02T10:09:49;4.63;;;1.90;;
33162;SDS011;29282;45.656;11.302;2023-03-02T10:15:13;5.13;;;2.30;;
33162;SDS011;29282;45.656;11.302;2023-03-02T10:21:04;4.43;;;2.17;;
33162;SDS011;29282;45.656;11.302;2023-03-02T10:32:04;3.78;;;2.10;;
33162;SDS011;29282;45.656;11.302;2023-03-02T10:34:47;6.40;;;2.08;;
33162;SDS011;29282;45.656;11.302;2023-03-02T10:37:21;4.15;;;2.20;;
33162;SDS011;29282;45.656;11.302;2023-03-02T10:39:53;3.90;;;1.92;;
33162;SDS011;29282;45.656;11.302;2023-03-02T10:42:29;4.70;;;1.83;;
33162;SDS011;29282;45.656;11.302;2023-03-02T10:45:07;2.35;;;2.00;;
33162;SDS011;29282;45.656;11.302;2023-03-02T10:47:37;4.45;;;2.30;;
33162;SDS011;29282;45.656;11.302;2023-03-02T10:50:02;5.75;;;2.10;;
33162;SDS011;29282;45.656;11.302;2023-03-02T10:52:28;4.85;;;2.08;;
33162;SDS011;29282;45.656;11.302;2023-03-02T10:55:04;3.28;;;1.80;;
33162;SDS011;29282;45.656;11.302;2023-03-02T10:57:40;6.55;;;2.00;;
33162;SDS011;29282;45.656;11.302;2023-03-02T11:03:04;8.05;;;2.30;;
33162;SDS011;29282;45.656;11.302;2023-03-02T11:05:44;6.47;;;2.20;;
33162;SDS011;29282;45.656;11.302;2023-03-02T11:08:19;3.72;;;1.85;;
33162;SDS011;29282;45.656;11.302;2023-03-02T11:10:57;3.83;;;2.00;;
33162;SDS011;29282;45.656;11.302;2023-03-02T11:13:26;5.13;;;2.20;;
33162;SDS011;29282;45.656;11.302;2023-03-02T11:15:57;7.80;;;2.38;;
33162;SDS011;29282;45.656;11.302;2023-03-02T11:21:36;3.38;;;2.25;;
33162;SDS011;29282;45.656;11.302;2023-03-02T11:24:11;4.22;;;1.90;;
33162;SDS011;29282;45.656;11.302;2023-03-02T11:31:55;4.00;;;2.05;;
33162;SDS011;29282;45.656;11.302;2023-03-02T11:37:04;2.40;;;1.77;;
33162;SDS011;29282;45.656;11.302;2023-03-02T11:39:48;5.50;;;2.03;;
33162;SDS011;29282;45.656;11.302;2023-03-02T11:42:31;5.03;;;1.95;;
33162;SDS011;29282;45.656;11.302;2023-03-02T11:44:59;4.18;;;1.90;;
33162;SDS011;29282;45.656;11.302;2023-03-02T11:47:30;4.75;;;1.90;;
33162;SDS011;29282;45.656;11.302;2023-03-02T11:49:59;4.63;;;1.90;;
33162;SDS011;29282;45.656;11.302;2023-03-02T11:52:29;2.67;;;1.90;;
33162;SDS011;29282;45.656;11.302;2023-03-02T11:57:56;4.68;;;2.00;;
33162;SDS011;29282;45.656;11.302;2023-03-02T12:00:29;3.42;;;1.88;;
33162;SDS011;29282;45.656;11.302;2023-03-02T12:02:59;4.70;;;1.60;;
33162;SDS011;29282;45.656;11.302;2023-03-02T12:05:44;2.63;;;1.90;;
33162;SDS011;29282;45.656;11.302;2023-03-02T12:10:54;2.78;;;1.90;;
33162;SDS011;29282;45.656;11.302;2023-03-02T12:13:36;2.78;;;1.80;;
33162;SDS011;29282;45.656;11.302;2023-03-02T12:16:03;2.17;;;1.67;;
33162;SDS011;29282;45.656;11.302;2023-03-02T12:18:43;2.95;;;1.70;;
33162;SDS011;29282;45.656;11.302;2023-03-02T12:21:22;2.75;;;1.90;;
33162;SDS011;29282;45.656;11.302;2023-03-02T12:26:32;2.65;;;1.58;;
33162;SDS011;29282;45.656;11.302;2023-03-02T12:31:47;4.35;;;1.80;;
33162;SDS011;29282;45.656;11.302;2023-03-02T12:36:53;4.25;;;2.00;;
33162;SDS011;29282;45.656;11.302;2023-03-02T12:39:32;5.03;;;1.92;;
33162;SDS011;29282;45.656;11.302;2023-03-02T12:45:18;2.22;;;1.67;;
33162;SDS011;29282;45.656;11.302;2023-03-02T12:47:45;4.43;;;1.77;;
33162;SDS011;29282;45.656;11.302;2023-03-02T12:50:19;3.88;;;1.90;;
33162;SDS011;29282;45.656;11.302;2023-03-02T12:52:56;4.45;;;2.00;;
33162;SDS011;29282;45.656;11.302;2023-03-02T12:55:27;2.70;;;1.60;;
33162;SDS011;29282;45.656;11.302;2023-03-02T12:57:56;1.60;;;1.50;;
33162;SDS011;29282;45.656;11.302;2023-03-02T13:00:29;4.78;;;1.67;;
33162;SDS011;29282;45.656;11.302;2023-03-02T13:02:58;3.65;;;2.20;;
33162;SDS011;29282;45.656;11.302;2023-03-02T13:05:28;4.53;;;1.90;;
33162;SDS011;29282;45.656;11.302;2023-03-02T13:10:50;3.00;;;1.80;;
33162;SDS011;29282;45.656;11.302;2023-03-02T13:13:24;2.67;;;1.67;;
33162;SDS011;29282;45.656;11.302;2023-03-02T13:16:16;4.95;;;1.65;;
33162;SDS011;29282;45.656;11.302;2023-03-02T13:18:48;3.63;;;1.70;;
33162;SDS011;29282;45.656;11.302;2023-03-02T13:23:56;3.15;;;2.00;;
33162;SDS011;29282;45.656;11.302;2023-03-02T13:29:03;4.25;;;1.80;;
33162;SDS011;29282;45.656;11.302;2023-03-02T13:31:32;3.20;;;1.63;;
33162;SDS011;29282;45.656;11.302;2023-03-02T13:33:59;3.63;;;2.03;;
33162;SDS011;29282;45.656;11.302;2023-03-02T13:36:26;6.53;;;2.20;;
33162;SDS011;29282;45.656;11.302;2023-03-02T13:38:56;5.22;;;1.80;;
33162;SDS011;29282;45.656;11.302;2023-03-02T13:41:34;4.68;;;1.70;;
33162;SDS011;29282;45.656;11.302;2023-03-02T13:44:18;4.65;;;1.80;;
33162;SDS011;29282;45.656;11.302;2023-03-02T13:46:50;6.18;;;1.80;;
33162;SDS011;29282;45.656;11.302;2023-03-02T13:49:28;3.40;;;2.00;;
33162;SDS011;29282;45.656;11.302;2023-03-02T13:52:04;5.38;;;1.70;;
33162;SDS011;29282;45.656;11.302;2023-03-02T13:54:42;3.85;;;1.92;;
33162;SDS011;29282;45.656;11.302;2023-03-02T13:57:10;4.72;;;1.73;;
33162;SDS011;29282;45.656;11.302;2023-03-02T13:59:41;6.30;;;2.50;;
33162;SDS011;29282;45.656;11.302;2023-03-02T14:02:23;6.45;;;2.53;;
33162;SDS011;29282;45.656;11.302;2023-03-02T14:04:54;5.13;;;2.10;;
33162;SDS011;29282;45.656;11.302;2023-03-02T14:07:21;5.30;;;2.22;;
33162;SDS011;29282;45.656;11.302;2023-03-02T14:09:46;6.57;;;2.10;;
33162;SDS011;29282;45.656;11.302;2023-03-02T14:12:19;9.13;;;2.10;;
33162;SDS011;29282;45.656;11.302;2023-03-02T14:14:50;4.60;;;1.95;;
33162;SDS011;29282;45.656;11.302;2023-03-02T14:17:18;5.78;;;1.83;;
33162;SDS011;29282;45.656;11.302;2023-03-02T14:19:46;2.13;;;1.52;;
33162;SDS011;29282;45.656;11.302;2023-03-02T14:22:16;7.93;;;1.85;;
33162;SDS011;29282;45.656;11.302;2023-03-02T14:24:45;5.50;;;1.90;;
33162;SDS011;29282;45.656;11.302;2023-03-02T14:27:12;5.55;;;2.13;;
33162;SDS011;29282;45.656;11.302;2023-03-02T14:29:40;2.97;;;1.80;;
33162;SDS011;29282;45.656;11.302;2023-03-02T14:32:08;5.65;;;1.90;;
33162;SDS011;29282;45.656;11.302;2023-03-02T14:34:35;4.35;;;1.70;;
33162;SDS011;29282;45.656;11.302;2023-03-02T14:37:02;2.80;;;1.50;;
33162;SDS011;29282;45.656;11.302;2023-03-02T14:42:03;3.30;;;1.88;;
33162;SDS011;29282;45.656;11.302;2023-03-02T14:44:31;4.80;;;1.70;;
33162;SDS011;29282;45.656;11.302;2023-03-02T14:46:57;7.13;;;2.13;;
33162;SDS011;29282;45.656;11.302;2023-03-02T14:49:22;3.80;;;1.80;;
33162;SDS011;29282;45.656;11.302;2023-03-02T14:52:10;8.57;;;1.90;;
33162;SDS011;29282;45.656;11.302;2023-03-02T14:54:42;7.40;;;2.05;;
33162;SDS011;29282;45.656;11.302;2023-03-02T14:57:19;4.90;;;2.20;;
33162;SDS011;29282;45.656;11.302;2023-03-02T14:59:47;4.55;;;1.63;;
33162;SDS011;29282;45.656;11.302;2023-03-02T15:02:13;6.35;;;1.83;;
33162;SDS011;29282;45.656;11.302;2023-03-02T15:04:40;3.03;;;1.70;;
33162;SDS011;29282;45.656;11.302;2023-03-02T15:07:08;5.45;;;1.90;;
33162;SDS011;29282;45.656;11.302;2023-03-02T15:09:35;5.43;;;1.60;;
33162;SDS011;29282;45.656;11.302;2023-03-02T15:12:00;8.38;;;2.08;;
33162;SDS011;29282;45.656;11.302;2023-03-02T15:14:26;3.55;;;1.70;;
33162;SDS011;29282;45.656;11.302;2023-03-02T15:16:51;2.95;;;1.83;;
33162;SDS011;29282;45.656;11.302;2023-03-02T15:19:17;5.28;;;2.00;;
33162;SDS011;29282;45.656;11.302;2023-03-02T15:21:43;6.18;;;2.20;;
33162;SDS011;29282;45.656;11.302;2023-03-02T15:24:10;3.75;;;1.75;;
33162;SDS011;29282;45.656;11.302;2023-03-02T15:26:36;15.50;;;2.10;;
33162;SDS011;29282;45.656;11.302;2023-03-02T15:29:03;3.83;;;1.75;;
33162;SDS011;29282;45.656;11.302;2023-03-02T15:31:29;4.07;;;2.08;;
33162;SDS011;29282;45.656;11.302;2023-03-02T15:33:55;5.95;;;1.85;;
33162;SDS011;29282;45.656;11.302;2023-03-02T15:36:20;3.38;;;1.52;;
33162;SDS011;29282;45.656;11.302;2023-03-02T15:38:48;3.92;;;1.73;;
33162;SDS011;29282;45.656;11.302;2023-03-02T15:41:14;4.47;;;1.90;;
33162;SDS011;29282;45.656;11.302;2023-03-02T15:43:40;3.63;;;1.70;;
33162;SDS011;29282;45.656;11.302;2023-03-02T15:46:06;4.15;;;2.38;;
33162;SDS011;29282;45.656;11.302;2023-03-02T15:48:33;4.07;;;1.60;;
33162;SDS011;29282;45.656;11.302;2023-03-02T15:51:00;5.35;;;1.73;;
33162;SDS011;29282;45.656;11.302;2023-03-02T15:53:28;3.80;;;1.85;;
33162;SDS011;29282;45.656;11.302;2023-03-02T15:55:54;6.07;;;1.80;;
33162;SDS011;29282;45.656;11.302;2023-03-02T15:58:20;2.70;;;1.65;;
33162;SDS011;29282;45.656;11.302;2023-03-02T16:00:49;2.85;;;1.80;;